Time;durP1;ratioP1;P1;durP2;ratioP2;P2;SDS_P1;SDS_P2;PMS_P1;PMS_P2;Temp;Humidity;BMP_temperature;BMP_pressure;BME280_temperature;BME280_humidity;BME280_pressure;Samples;Min_cycle;Max_cycle;Signal;HPM_P1;HPM_P2
2022/06/30 00:01:27;;;;;;;7.45;2.20;;;;;;;15.91;62.03;100333.53;5113265;28;20472;-45
2022/06/30 00:03:53;;;;;;;6.72;1.58;;;;;;;15.81;62.36;100350.34;5113988;28;20166;-46
2022/06/30 00:06:19;;;;;;;8.48;2.00;;;;;;;15.86;61.81;100355.06;5113147;28;20043;-46
2022/06/30 00:08:44;;;;;;;5.68;2.20;;;;;;;15.93;61.13;100344.97;5113191;28;20109;-45
2022/06/30 00:11:10;;;;;;;4.97;1.23;;;;;;;15.93;61.18;100347.66;5113103;28;20077;-45
2022/06/30 00:13:38;;;;;;;6.80;1.55;;;;;;;15.75;62.60;100354.00;5112783;28;20050;-48
2022/06/30 00:16:05;;;;;;;8.77;1.73;;;;;;;15.51;63.42;100341.38;5113712;28;20032;-46
2022/06/30 00:18:31;;;;;;;11.45;2.13;;;;;;;15.65;62.46;100351.78;5095043;28;20107;-45
2022/06/30 00:20:57;;;;;;;8.98;1.60;;;;;;;15.70;62.61;100344.88;5114510;28;20023;-47
2022/06/30 00:23:23;;;;;;;5.72;1.48;;;;;;;15.65;62.98;100342.84;5117806;27;20107;-48
2022/06/30 00:25:50;;;;;;;4.47;1.80;;;;;;;15.55;63.58;100348.81;5117741;28;20495;-46
2022/06/30 00:28:18;;;;;;;10.93;2.00;;;;;;;15.39;64.31;100334.03;5112420;28;20454;-48
2022/06/30 00:30:45;;;;;;;11.02;2.25;;;;;;;15.25;65.40;100338.81;5110994;28;20035;-46
2022/06/30 00:33:10;;;;;;;7.05;1.70;;;;;;;15.32;64.56;100337.91;5111224;28;20081;-46
2022/06/30 00:35:36;;;;;;;8.77;1.50;;;;;;;15.42;63.72;100340.91;5110927;28;20032;-47
2022/06/30 00:38:02;;;;;;;6.97;2.13;;;;;;;15.26;65.08;100350.44;5112760;28;20058;-47
2022/06/30 00:40:28;;;;;;;8.82;2.10;;;;;;;15.21;64.47;100337.63;5112672;28;20027;-47
2022/06/30 00:42:54;;;;;;;7.72;2.20;;;;;;;15.25;64.32;100349.63;5112327;28;20368;-46
2022/06/30 00:45:20;;;;;;;5.88;1.88;;;;;;;15.15;64.12;100322.28;5112424;28;20502;-46
2022/06/30 00:47:46;;;;;;;6.85;1.52;;;;;;;15.27;63.98;100334.00;5111086;28;20356;-46
2022/06/30 00:50:11;;;;;;;8.68;1.75;;;;;;;15.26;64.35;100337.75;5112756;28;20023;-47
2022/06/30 00:52:37;;;;;;;7.55;2.30;;;;;;;15.12;65.70;100351.66;5111072;28;20024;-45
2022/06/30 00:55:05;;;;;;;9.35;1.83;;;;;;;14.96;65.94;100340.41;5112183;28;20102;-46
2022/06/30 00:57:32;;;;;;;8.38;1.73;;;;;;;15.08;65.36;100335.91;5111051;28;20038;-45
2022/06/30 00:59:58;;;;;;;4.50;1.60;;;;;;;15.02;66.24;100347.59;5110975;28;20023;-47
2022/06/30 01:02:25;;;;;;;5.60;1.55;;;;;;;15.20;64.76;100341.38;5110803;28;20031;-46
2022/06/30 01:04:53;;;;;;;6.95;1.75;;;;;;;15.21;65.98;100334.91;5110732;28;20035;-46
2022/06/30 01:07:22;;;;;;;8.40;1.67;;;;;;;15.03;66.59;100334.94;5110921;28;20031;-46
2022/06/30 01:12:49;;;;;;;9.20;2.00;;;;;;;14.81;67.43;100310.22;5110852;28;20031;-47
2022/06/30 01:15:18;;;;;;;8.00;1.60;;;;;;;14.86;66.68;100322.00;5110357;28;20029;-46
2022/06/30 01:17:45;;;;;;;9.52;2.17;;;;;;;14.76;67.33;100313.59;5112490;28;20463;-47
2022/06/30 01:20:12;;;;;;;7.45;1.70;;;;;;;14.80;66.90;100308.56;5112791;28;20475;-46
2022/06/30 01:22:38;;;;;;;6.90;2.05;;;;;;;14.64;68.38;100300.00;5112515;28;20026;-46
2022/06/30 01:25:06;;;;;;;8.57;1.50;;;;;;;14.67;67.32;100293.31;5112304;28;20032;-46
2022/06/30 01:27:32;;;;;;;6.28;1.45;;;;;;;14.73;66.61;100308.66;5113090;28;20558;-46
2022/06/30 01:29:58;;;;;;;10.38;2.00;;;;;;;14.66;67.87;100299.78;5111578;28;20035;-46
2022/06/30 01:32:25;;;;;;;6.45;2.08;;;;;;;14.55;67.51;100290.50;5112267;28;20055;-46
2022/06/30 01:34:52;;;;;;;10.15;2.28;;;;;;;14.52;68.43;100308.00;5110763;28;20023;-46
2022/06/30 01:37:18;;;;;;;12.55;1.83;;;;;;;14.50;68.16;100304.69;5111998;28;20039;-46
2022/06/30 01:39:44;;;;;;;8.98;2.00;;;;;;;14.59;67.56;100315.25;5109581;28;20051;-46
2022/06/30 01:42:10;;;;;;;9.73;1.50;;;;;;;14.60;67.91;100314.19;5110399;28;20082;-46
2022/06/30 01:44:37;;;;;;;9.02;2.30;;;;;;;14.61;68.33;100323.94;5112057;28;20021;-46
2022/06/30 01:47:03;;;;;;;5.47;2.08;;;;;;;14.36;68.58;100295.06;5110554;28;20110;-46
2022/06/30 01:49:29;;;;;;;5.63;1.60;;;;;;;14.50;68.35;100311.97;5111942;28;20035;-46
2022/06/30 01:51:55;;;;;;;6.32;1.65;;;;;;;14.59;68.66;100326.06;5110539;28;20062;-46
2022/06/30 01:54:21;;;;;;;10.27;1.95;;;;;;;14.61;68.91;100313.13;5110576;28;20047;-46
2022/06/30 01:56:46;;;;;;;7.43;2.33;;;;;;;14.36;69.54;100283.41;5110314;28;20035;-46
2022/06/30 01:59:13;;;;;;;5.43;1.70;;;;;;;14.62;68.65;100293.19;5110663;28;20115;-46
2022/06/30 02:01:39;;;;;;;10.13;2.13;;;;;;;14.59;69.24;100299.03;5110127;28;20122;-46
2022/06/30 02:06:51;;;;;;;6.05;2.10;;;;;;;14.56;69.53;100315.66;5110497;28;20054;-46
2022/06/30 02:09:18;;;;;;;9.90;2.85;;;;;;;14.55;69.50;100308.59;5111535;28;20492;-51
2022/06/30 02:11:43;;;;;;;6.97;1.65;;;;;;;14.57;69.30;100303.81;5093214;28;20058;-46
2022/06/30 02:14:09;;;;;;;6.28;1.80;;;;;;;14.58;69.98;100305.47;5113116;28;20363;-46
2022/06/30 02:16:35;;;;;;;11.80;2.22;;;;;;;14.55;70.19;100316.72;5112284;28;20036;-47
2022/06/30 02:19:01;;;;;;;14.82;2.83;;;;;;;14.52;70.23;100312.56;5110050;28;20084;-46
2022/06/30 02:21:27;;;;;;;9.23;2.10;;;;;;;14.53;69.73;100301.53;5112094;28;20066;-46
2022/06/30 02:23:53;;;;;;;9.20;2.08;;;;;;;14.43;70.89;100295.84;5109929;28;20115;-47
2022/06/30 02:26:19;;;;;;;8.70;1.98;;;;;;;14.45;70.49;100309.09;5110307;28;20103;-46
2022/06/30 02:28:45;;;;;;;7.13;1.90;;;;;;;14.54;69.57;100307.75;5109700;28;20088;-47
2022/06/30 02:31:12;;;;;;;11.38;2.10;;;;;;;14.56;69.88;100312.94;5110577;28;20032;-46
2022/06/30 02:33:40;;;;;;;7.15;2.08;;;;;;;14.61;69.65;100311.25;5092854;28;20027;-46
2022/06/30 02:36:07;;;;;;;8.50;1.95;;;;;;;14.70;68.98;100315.31;5111196;28;20114;-46
2022/06/30 02:38:33;;;;;;;7.65;1.55;;;;;;;14.45;69.92;100291.03;5111674;28;20028;-47
2022/06/30 02:40:58;;;;;;;9.80;2.10;;;;;;;14.61;69.92;100319.34;5110037;28;20027;-46
2022/06/30 02:43:24;;;;;;;6.28;2.03;;;;;;;14.37;70.27;100295.88;5109805;28;20031;-47
2022/06/30 02:45:50;;;;;;;8.13;1.55;;;;;;;14.60;69.53;100324.97;5109472;28;20032;-48
2022/06/30 02:48:16;;;;;;;4.95;1.48;;;;;;;14.60;69.62;100331.25;5092704;28;20042;-48
2022/06/30 02:50:44;;;;;;;7.32;1.85;;;;;;;14.58;70.10;100330.63;5111938;28;20122;-47
2022/06/30 02:53:13;;;;;;;9.45;2.33;;;;;;;14.55;69.90;100322.94;5115198;28;20409;-46
2022/06/30 02:55:38;;;;;;;8.25;1.95;;;;;;;14.50;70.65;100320.91;5113563;28;20043;-48
2022/06/30 02:58:04;;;;;;;7.60;1.90;;;;;;;14.48;70.76;100330.28;5116022;28;20023;-47
2022/06/30 03:00:30;;;;;;;6.85;2.22;;;;;;;14.41;71.20;100319.56;5114976;28;20099;-47
2022/06/30 03:02:57;;;;;;;9.55;2.15;;;;;;;14.50;70.42;100328.19;5114081;28;20027;-48
2022/06/30 03:05:24;;;;;;;7.72;1.83;;;;;;;14.51;69.67;100327.97;5114361;28;20449;-47
2022/06/30 03:07:50;;;;;;;5.70;1.67;;;;;;;14.56;70.34;100331.84;5113917;28;20450;-47
2022/06/30 03:10:16;;;;;;;8.85;2.20;;;;;;;14.47;70.82;100331.34;5113647;28;20460;-45
2022/06/30 03:12:42;;;;;;;7.82;2.30;;;;;;;14.38;71.44;100317.28;5078883;28;20024;-46
2022/06/30 03:15:08;;;;;;;7.78;1.90;;;;;;;14.35;71.43;100306.09;5112067;28;20026;-46
2022/06/30 03:17:34;;;;;;;9.98;1.83;;;;;;;14.39;71.05;100312.69;5095310;28;20047;-46
2022/06/30 03:19:59;;;;;;;7.22;1.65;;;;;;;14.41;71.22;100337.63;5113553;27;20050;-46
2022/06/30 03:22:25;;;;;;;8.95;1.73;;;;;;;14.28;71.26;100323.19;5094884;28;20481;-45
2022/06/30 03:24:51;;;;;;;8.82;1.98;;;;;;;14.42;70.90;100339.28;5113316;28;20091;-46
2022/06/30 03:27:18;;;;;;;7.63;1.77;;;;;;;14.51;69.35;100337.94;5112930;28;20043;-46
2022/06/30 03:29:43;;;;;;;9.65;1.95;;;;;;;14.49;70.66;100343.56;5111992;28;20404;-46
2022/06/30 03:32:09;;;;;;;11.70;2.35;;;;;;;14.38;71.63;100344.31;5113201;28;20043;-46
2022/06/30 03:34:35;;;;;;;12.02;1.80;;;;;;;14.37;71.32;100341.81;5113083;28;20032;-46
2022/06/30 03:37:01;;;;;;;9.18;2.35;;;;;;;14.28;71.74;100336.72;5111535;28;20043;-46
2022/06/30 03:39:27;;;;;;;9.45;1.55;;;;;;;14.38;71.26;100347.00;5113588;28;20031;-46
2022/06/30 03:41:52;;;;;;;5.63;1.70;;;;;;;14.42;70.38;100340.09;5111704;28;20032;-46
2022/06/30 03:44:18;;;;;;;4.68;1.85;;;;;;;14.43;70.71;100344.47;5111966;28;20039;-45
2022/06/30 03:46:44;;;;;;;7.60;2.30;;;;;;;14.35;70.76;100325.81;5113225;28;20385;-45
2022/06/30 03:49:10;;;;;;;7.35;1.55;;;;;;;14.42;70.75;100340.09;5111853;28;20027;-45
2022/06/30 03:51:35;;;;;;;6.45;1.63;;;;;;;14.51;70.25;100346.06;5113262;28;20028;-47
2022/06/30 03:54:01;;;;;;;9.18;1.67;;;;;;;14.40;70.80;100334.09;5112019;28;20347;-46
2022/06/30 03:56:27;;;;;;;12.90;2.45;;;;;;;14.31;72.03;100347.03;5112786;28;20077;-47
2022/06/30 03:58:53;;;;;;;13.25;2.90;;;;;;;14.32;70.92;100340.63;5112725;28;20113;-46
2022/06/30 04:01:19;;;;;;;7.35;2.10;;;;;;;14.41;71.28;100343.88;5113450;28;20031;-46
2022/06/30 04:03:45;;;;;;;4.13;1.67;;;;;;;14.46;70.49;100344.00;5111898;28;20413;-45
2022/06/30 04:06:11;;;;;;;8.55;1.70;;;;;;;14.49;70.26;100346.28;5112338;27;20028;-45
2022/06/30 04:08:37;;;;;;;9.65;1.98;;;;;;;14.46;70.80;100356.69;5112682;28;20031;-46
2022/06/30 04:11:03;;;;;;;13.35;2.40;;;;;;;14.19;72.02;100323.69;5112291;28;20055;-45
2022/06/30 04:13:28;;;;;;;12.10;2.20;;;;;;;14.36;71.35;100350.94;5112569;28;20110;-46
2022/06/30 04:15:55;;;;;;;7.15;1.80;;;;;;;14.38;70.93;100352.41;5112432;28;20035;-46
2022/06/30 04:18:21;;;;;;;10.15;2.35;;;;;;;14.35;71.27;100344.72;5112563;28;20077;-54
2022/06/30 04:20:47;;;;;;;9.80;2.58;;;;;;;14.39;71.70;100342.41;5111870;28;20057;-46
2022/06/30 04:23:13;;;;;;;3.67;1.27;;;;;;;13.98;71.67;100281.69;5111968;28;20451;-46
2022/06/30 04:25:38;;;;;;;9.27;1.75;;;;;;;14.30;71.80;100336.47;5112534;28;20114;-47
2022/06/30 04:28:05;;;;;;;7.75;2.08;;;;;;;14.31;71.65;100336.25;5111060;28;20383;-46
2022/06/30 04:33:16;;;;;;;10.07;2.60;;;;;;;14.17;73.11;100347.38;5096819;28;20289;-47
2022/06/30 04:35:42;;;;;;;9.20;1.85;;;;;;;14.09;73.66;100345.78;5112008;28;20127;-46
2022/06/30 04:38:08;;;;;;;13.50;2.13;;;;;;;14.12;73.03;100339.94;5093387;28;20160;-47
2022/06/30 04:43:19;;;;;;;9.48;2.30;;;;;;;14.00;71.86;100298.50;5110448;28;20052;-46
2022/06/30 04:45:45;;;;;;;6.15;1.88;;;;;;;14.37;71.86;100334.53;5112285;28;20045;-46
2022/06/30 04:48:11;;;;;;;8.25;1.50;;;;;;;14.58;71.27;100348.72;5112263;28;20024;-46
2022/06/30 04:50:38;;;;;;;5.75;1.48;;;;;;;14.20;71.21;100288.34;5111658;28;20125;-46
2022/06/30 04:53:04;;;;;;;7.10;1.83;;;;;;;14.60;71.11;100343.91;5111962;28;20400;-46
2022/06/30 04:55:30;;;;;;;4.55;1.60;;;;;;;14.52;70.85;100335.03;5111709;28;20430;-46
2022/06/30 04:57:55;;;;;;;9.85;1.98;;;;;;;14.31;71.39;100306.53;5111424;28;20065;-50
2022/06/30 05:00:21;;;;;;;7.57;2.03;;;;;;;14.52;71.78;100353.09;5111870;28;20139;-50
2022/06/30 05:02:47;;;;;;;11.82;2.22;;;;;;;14.50;71.76;100350.66;5111535;28;20432;-51
2022/06/30 05:05:13;;;;;;;8.30;1.67;;;;;;;14.52;71.84;100353.09;5109906;28;20035;-46
2022/06/30 05:07:38;;;;;;;8.75;1.98;;;;;;;14.50;71.45;100345.25;5111373;28;20035;-46
2022/06/30 05:10:04;;;;;;;16.52;2.40;;;;;;;14.43;72.51;100343.63;5110280;28;20127;-46
2022/06/30 05:12:31;;;;;;;11.85;2.70;;;;;;;14.45;72.21;100358.59;5111683;28;20347;-46
2022/06/30 05:14:57;;;;;;;7.38;1.80;;;;;;;14.55;72.70;100359.94;5109975;28;20023;-46
2022/06/30 05:17:22;;;;;;;9.38;2.10;;;;;;;14.61;71.95;100359.09;5109852;28;20123;-46
2022/06/30 05:19:48;;;;;;;4.72;1.92;;;;;;;14.61;71.79;100351.78;5111062;28;20107;-47
2022/06/30 05:22:14;;;;;;;6.18;1.40;;;;;;;14.65;71.11;100346.78;5111194;28;20036;-47
2022/06/30 05:27:25;;;;;;;7.95;2.28;;;;;;;14.57;71.99;100330.81;5110204;28;20058;-47
2022/06/30 05:29:50;;;;;;;7.55;2.00;;;;;;;14.65;71.60;100353.03;5109804;28;20409;-47
2022/06/30 05:32:16;;;;;;;8.27;2.92;;;;;;;14.74;71.07;100348.13;5109658;28;20016;-44
2022/06/30 05:34:42;;;;;;;8.10;2.45;;;;;;;14.77;71.21;100353.09;5111126;28;20031;-47
2022/06/30 05:37:07;;;;;;;6.80;1.75;;;;;;;14.67;71.40;100353.63;5109439;28;20038;-47
2022/06/30 05:39:33;;;;;;;7.20;2.17;;;;;;;14.32;71.63;100291.16;5111021;28;20063;-47
2022/06/30 05:42:00;;;;;;;5.60;1.60;;;;;;;14.86;71.11;100351.75;5110973;28;20464;-47
2022/06/30 05:44:28;;;;;;;8.52;2.45;;;;;;;15.02;70.44;100344.91;5110844;28;20084;-46
2022/06/30 05:46:54;;;;;;;6.82;1.80;;;;;;;15.14;69.68;100346.88;5111370;28;20492;-47
2022/06/30 05:49:21;;;;;;;3.60;1.30;;;;;;;15.19;69.34;100350.56;5111285;28;20355;-47
2022/06/30 05:51:47;;;;;;;7.03;1.75;;;;;;;15.14;69.83;100334.16;5110930;28;20028;-48
2022/06/30 05:54:13;;;;;;;6.13;1.73;;;;;;;15.16;69.31;100329.34;5109838;28;20115;-46
2022/06/30 05:56:38;;;;;;;8.05;1.95;;;;;;;15.24;69.50;100337.16;5092158;28;20027;-48
2022/06/30 05:59:04;;;;;;;6.97;2.22;;;;;;;15.22;69.30;100333.84;5110827;28;20046;-48
2022/06/30 06:01:30;;;;;;;5.57;1.67;;;;;;;15.24;68.81;100342.56;5110574;28;20031;-46
2022/06/30 06:03:55;;;;;;;7.97;1.95;;;;;;;15.09;69.21;100325.91;5110225;28;20027;-47
2022/06/30 06:06:21;;;;;;;5.05;1.60;;;;;;;15.19;68.74;100350.56;5108839;28;20101;-45
2022/06/30 06:08:47;;;;;;;7.30;1.80;;;;;;;15.16;69.14;100355.59;5110164;28;20035;-46
2022/06/30 06:11:13;;;;;;;4.63;1.83;;;;;;;15.14;69.84;100371.22;5108597;28;20483;-48
2022/06/30 06:13:38;;;;;;;4.60;1.92;;;;;;;15.27;69.49;100368.34;5110480;28;20024;-46
2022/06/30 06:16:04;;;;;;;7.40;1.90;;;;;;;15.22;69.60;100377.13;5110373;28;20027;-45
2022/06/30 06:18:30;;;;;;;10.02;1.65;;;;;;;15.18;69.98;100383.25;5110841;28;20027;-46
2022/06/30 06:20:56;;;;;;;8.75;2.22;;;;;;;15.25;69.92;100384.00;5110720;28;20043;-46
2022/06/30 06:23:21;;;;;;;8.68;2.10;;;;;;;15.18;70.20;100383.25;5110326;28;20336;-47
2022/06/30 06:25:47;;;;;;;5.53;1.88;;;;;;;15.09;70.10;100377.28;5110255;28;20473;-46
2022/06/30 06:30:58;;;;;;;13.32;2.55;;;;;;;15.17;69.52;100371.56;5098738;28;20115;-47
2022/06/30 06:33:24;;;;;;;13.00;2.47;;;;;;;15.29;69.18;100366.25;5114069;28;20366;-46
2022/06/30 06:35:50;;;;;;;10.43;2.10;;;;;;;15.48;68.93;100369.75;5114194;28;20039;-45
2022/06/30 06:38:15;;;;;;;7.38;1.85;;;;;;;15.59;68.34;100368.97;5114163;28;20180;-47
2022/06/30 06:40:41;;;;;;;6.90;1.80;;;;;;;15.72;67.42;100364.44;5114161;28;20114;-45
2022/06/30 06:43:07;;;;;;;7.95;1.90;;;;;;;15.75;66.99;100358.56;5113995;28;20102;-49
2022/06/30 06:45:33;;;;;;;6.47;2.03;;;;;;;15.75;66.95;100354.00;5114121;27;20038;-45
2022/06/30 06:47:58;;;;;;;6.18;2.33;;;;;;;15.65;67.17;100362.63;5112407;28;20437;-46
2022/06/30 06:50:24;;;;;;;4.72;1.90;;;;;;;15.68;66.83;100375.72;5112903;28;20027;-48
2022/06/30 06:52:50;;;;;;;7.63;2.28;;;;;;;15.77;66.65;100370.03;5114125;28;20088;-47
2022/06/30 06:55:17;;;;;;;8.85;2.00;;;;;;;15.86;66.42;100366.75;5114454;28;20035;-48
2022/06/30 06:57:43;;;;;;;8.88;1.85;;;;;;;15.83;66.09;100366.38;5095801;28;20065;-46
2022/06/30 07:00:12;;;;;;;9.73;2.10;;;;;;;15.85;66.02;100375.91;5112919;28;20351;-45
2022/06/30 07:02:39;;;;;;;9.50;1.98;;;;;;;15.73;65.89;100388.56;5114031;28;20114;-46
2022/06/30 07:05:05;;;;;;;7.93;2.05;;;;;;;15.52;66.29;100372.81;5113799;28;20032;-46
2022/06/30 07:07:31;;;;;;;6.95;1.88;;;;;;;15.59;66.18;100385.22;5113361;28;20511;-46
2022/06/30 07:09:57;;;;;;;5.28;2.15;;;;;;;15.66;65.66;100393.25;5112057;28;20051;-47
2022/06/30 07:12:23;;;;;;;7.40;2.60;;;;;;;15.75;65.60;100391.91;5114407;28;20032;-51
2022/06/30 07:14:50;;;;;;;6.80;1.90;;;;;;;15.87;65.23;100391.94;5114683;28;20031;-47
2022/06/30 07:17:16;;;;;;;5.25;1.52;;;;;;;15.82;65.20;100394.50;5116581;28;20378;-46
2022/06/30 07:19:42;;;;;;;5.38;1.95;;;;;;;15.64;65.45;100396.19;5096187;28;20042;-47
2022/06/30 07:22:08;;;;;;;10.63;1.98;;;;;;;15.54;65.86;100397.78;5111559;28;20486;-46
2022/06/30 07:24:34;;;;;;;9.73;2.03;;;;;;;15.63;65.40;100391.81;5113127;28;20035;-45
2022/06/30 07:27:00;;;;;;;9.93;1.75;;;;;;;15.88;64.61;100396.31;5111700;28;20081;-47
2022/06/30 07:29:26;;;;;;;7.75;1.90;;;;;;;15.95;64.10;100391.59;5111338;28;20047;-46
2022/06/30 07:31:53;;;;;;;4.80;1.70;;;;;;;16.04;63.48;100389.41;5113402;28;20042;-47
2022/06/30 07:34:20;;;;;;;6.78;1.88;;;;;;;16.11;62.87;100386.59;5112594;28;20103;-46
2022/06/30 07:36:45;;;;;;;6.78;1.90;;;;;;;16.17;63.14;100394.59;5111543;28;20047;-47
2022/06/30 07:39:11;;;;;;;4.88;1.30;;;;;;;16.08;62.90;100376.22;5110962;28;20051;-46
2022/06/30 07:41:38;;;;;;;6.53;1.90;;;;;;;16.11;62.84;100384.72;5111416;28;20436;-46
2022/06/30 07:44:04;;;;;;;7.70;1.73;;;;;;;16.18;62.69;100392.75;5111138;28;20027;-46
2022/06/30 07:46:29;;;;;;;5.63;1.23;;;;;;;16.30;62.40;100388.16;5112367;28;20065;-46
2022/06/30 07:48:55;;;;;;;6.35;1.95;;;;;;;16.57;61.83;100374.97;5111396;28;20066;-46
2022/06/30 07:51:21;;;;;;;5.78;1.60;;;;;;;16.70;61.21;100387.47;5110921;28;20452;-46
2022/06/30 07:53:48;;;;;;;8.27;1.80;;;;;;;16.87;60.51;100386.81;5112341;28;20120;-46
2022/06/30 07:56:14;;;;;;;9.27;1.60;;;;;;;17.00;59.91;100392.78;5111024;28;20032;-46
2022/06/30 07:58:40;;;;;;;6.40;1.60;;;;;;;16.95;60.34;100391.84;5112128;28;20028;-46
2022/06/30 08:01:06;;;;;;;8.93;1.92;;;;;;;17.01;60.17;100393.59;5112338;28;20039;-48
2022/06/30 08:03:32;;;;;;;6.50;1.50;;;;;;;17.38;58.62;100382.44;5112534;28;20034;-46
2022/06/30 08:05:58;;;;;;;6.88;1.58;;;;;;;17.49;58.17;100373.44;5127959;27;20058;-46
2022/06/30 08:08:23;;;;;;;5.15;1.38;;;;;;;17.62;57.48;100372.31;5112548;28;20102;-45
2022/06/30 08:10:49;;;;;;;4.65;1.42;;;;;;;17.97;56.65;100384.94;5112017;28;20514;-47
2022/06/30 08:13:15;;;;;;;6.05;1.33;;;;;;;18.21;55.14;100388.34;5111966;28;20394;-45
2022/06/30 08:15:41;;;;;;;2.78;0.90;;;;;;;18.12;54.07;100343.63;5111944;28;20036;-46
2022/06/30 08:18:07;;;;;;;5.07;1.30;;;;;;;18.37;54.22;100375.84;5111901;28;20106;-45
2022/06/30 08:20:34;;;;;;;6.60;1.50;;;;;;;18.21;53.80;100387.53;5111879;28;20023;-45
2022/06/30 08:23:00;;;;;;;3.72;1.10;;;;;;;17.95;54.14;100404.19;5111447;28;20444;-47
2022/06/30 08:25:27;;;;;;;5.78;1.17;;;;;;;17.85;53.56;100389.59;5110288;28;20034;-47
2022/06/30 08:27:53;;;;;;;3.83;1.10;;;;;;;17.80;54.53;100388.41;5111511;28;20054;-46
2022/06/30 08:30:19;;;;;;;3.95;1.00;;;;;;;17.78;53.59;100397.88;5110033;28;20036;-47
2022/06/30 08:32:45;;;;;;;2.75;0.75;;;;;;;17.75;54.18;100398.38;5111323;28;20085;-47
2022/06/30 08:35:10;;;;;;;4.38;1.10;;;;;;;17.72;54.41;100388.00;5111580;28;20036;-46
2022/06/30 08:37:36;;;;;;;4.45;1.20;;;;;;;17.80;53.42;100403.91;5111499;28;20112;-46
2022/06/30 08:42:48;;;;;;;4.95;1.08;;;;;;;17.89;52.47;100393.50;5110158;28;20028;-46
2022/06/30 08:45:19;;;;;;;4.43;0.85;;;;;;;17.97;52.76;100402.06;5110438;28;20106;-46
2022/06/30 08:47:46;;;;;;;2.53;0.88;;;;;;;18.14;51.18;100396.66;5110903;28;20065;-47
2022/06/30 08:50:14;;;;;;;3.92;1.00;;;;;;;18.31;50.12;100399.41;5112458;28;20083;-45
2022/06/30 08:52:52;;;;;;;6.13;1.08;;;;;;;18.50;49.04;100388.28;5111418;28;20031;-48
2022/06/30 08:55:23;;;;;;;4.75;1.13;;;;;;;18.21;48.77;100328.53;5110854;28;20050;-46
2022/06/30 08:57:51;;;;;;;5.65;1.27;;;;;;;18.66;49.06;100402.94;5112432;28;20053;-48
2022/06/30 09:00:17;;;;;;;5.68;1.13;;;;;;;18.62;49.01;100397.16;5110434;28;20421;-46
2022/06/30 09:02:45;;;;;;;2.70;0.80;;;;;;;18.80;48.87;100396.06;5111498;28;20035;-47
2022/06/30 09:05:11;;;;;;;6.70;0.93;;;;;;;19.50;47.87;100386.41;5092513;28;20038;-47
2022/06/30 09:07:37;;;;;;;3.28;0.98;;;;;;;19.50;47.88;100391.00;5110936;28;20027;-47
2022/06/30 09:10:05;;;;;;;3.05;0.93;;;;;;;19.53;47.18;100401.41;5110983;28;20142;-46
2022/06/30 09:12:31;;;;;;;5.18;1.08;;;;;;;19.78;46.95;100405.50;5111400;28;20028;-46
2022/06/30 09:14:57;;;;;;;4.18;0.70;;;;;;;20.18;45.78;100396.91;5109889;28;20475;-45
2022/06/30 09:17:25;;;;;;;2.72;0.77;;;;;;;20.13;44.92;100404.22;5092980;28;20031;-46
2022/06/30 09:19:57;;;;;;;3.22;0.75;;;;;;;19.90;45.77;100401.56;5092430;28;20036;-45
2022/06/30 09:22:34;;;;;;;2.85;0.93;;;;;;;20.02;45.36;100397.84;5109239;28;20382;-46
2022/06/30 09:25:10;;;;;;;2.85;1.02;;;;;;;20.02;44.45;100392.38;5109250;28;20032;-45
2022/06/30 09:27:38;;;;;;;2.28;0.68;;;;;;;20.00;45.20;100376.31;5092758;28;20099;-47
2022/06/30 09:30:10;;;;;;;5.07;0.95;;;;;;;19.99;43.55;100376.56;5110834;28;20031;-47
2022/06/30 09:32:49;;;;;;;3.72;0.75;;;;;;;19.85;44.72;100392.50;5111433;28;20038;-46
2022/06/30 09:35:16;;;;;;;2.42;0.85;;;;;;;19.92;45.54;100383.03;5110711;28;20506;-46
2022/06/30 09:37:42;;;;;;;3.53;1.00;;;;;;;20.04;44.81;100385.63;5113347;28;20036;-46
2022/06/30 09:40:09;;;;;;;5.43;1.13;;;;;;;20.35;44.95;100393.22;5112754;28;20111;-46
2022/06/30 09:42:43;;;;;;;3.08;0.80;;;;;;;20.37;43.73;100382.88;5112012;28;20052;-46
2022/06/30 09:45:11;;;;;;;4.25;0.98;;;;;;;20.45;43.54;100387.88;5092651;28;20497;-46
2022/06/30 09:47:52;;;;;;;4.47;0.95;;;;;;;20.43;42.41;100392.75;5111552;28;20051;-46
2022/06/30 09:50:18;;;;;;;2.10;0.77;;;;;;;20.43;43.12;100384.56;5109961;28;20110;-46
2022/06/30 09:52:44;;;;;;;4.60;0.93;;;;;;;20.33;43.90;100388.03;5112623;28;20110;-46
2022/06/30 09:55:12;;;;;;;3.72;0.93;;;;;;;20.16;43.17;100373.72;5111851;28;20055;-46
2022/06/30 09:57:43;;;;;;;3.67;0.98;;;;;;;20.34;42.66;100391.56;5109811;28;20491;-46
2022/06/30 10:00:12;;;;;;;2.63;0.77;;;;;;;20.34;41.57;100405.22;5111129;28;20039;-46
2022/06/30 10:02:41;;;;;;;2.42;1.05;;;;;;;20.29;42.78;100386.91;5097233;28;20031;-46
2022/06/30 10:05:09;;;;;;;2.08;0.70;;;;;;;20.39;42.52;100395.19;5113599;28;20091;-47
2022/06/30 10:07:36;;;;;;;2.60;0.50;;;;;;;20.53;43.33;100386.56;5114701;28;20126;-47
2022/06/30 10:10:07;;;;;;;1.90;0.73;;;;;;;20.36;42.46;100365.69;5114522;28;20449;-48
2022/06/30 10:12:33;;;;;;;2.03;0.80;;;;;;;20.53;40.09;100392.81;5114591;28;20102;-49
2022/06/30 10:15:00;;;;;;;3.15;0.57;;;;;;;20.30;40.89;100359.38;5116298;28;20088;-51
2022/06/30 10:17:29;;;;;;;2.72;0.57;;;;;;;20.38;41.10;100384.53;5115725;28;20028;-51
2022/06/30 10:19:56;;;;;;;1.65;0.57;;;;;;;20.41;41.49;100373.09;5097811;28;20078;-48
2022/06/30 10:22:23;;;;;;;1.67;0.60;;;;;;;20.40;41.33;100366.81;5114890;28;20098;-48
2022/06/30 10:24:51;;;;;;;2.33;0.70;;;;;;;20.51;41.54;100378.63;5114050;28;20035;-47
2022/06/30 10:27:18;;;;;;;2.17;0.60;;;;;;;20.56;41.65;100377.81;5113224;28;20036;-47
2022/06/30 10:29:49;;;;;;;2.08;0.70;;;;;;;20.57;40.75;100380.31;5114303;28;20024;-47
2022/06/30 10:32:35;;;;;;;1.60;0.57;;;;;;;20.63;40.10;100387.47;5114402;28;20027;-46
2022/06/30 10:35:27;;;;;;;2.42;0.63;;;;;;;20.43;39.22;100371.75;5114191;28;20134;-47
2022/06/30 10:38:03;;;;;;;3.67;0.60;;;;;;;20.40;40.70;100387.81;5099005;28;20163;-47
2022/06/30 10:40:45;;;;;;;2.13;0.70;;;;;;;20.40;40.55;100393.28;5114578;28;20359;-46
2022/06/30 10:43:10;;;;;;;5.10;0.98;;;;;;;20.24;41.88;100390.41;5112900;28;20031;-47
2022/06/30 10:45:55;;;;;;;4.30;0.88;;;;;;;20.28;41.26;100387.97;5113991;28;20046;-47
2022/06/30 10:48:21;;;;;;;;;;;;;;;20.22;41.26;100386.31;5096455;28;20039;-46
2022/06/30 10:50:47;;;;;;;2.90;0.60;;;;;;;20.43;42.57;100387.28;5114141;28;19915;-46
2022/06/30 10:53:18;;;;;;;4.90;1.00;;;;;;;20.39;41.79;100391.63;5113948;28;20058;-48
2022/06/30 10:55:55;;;;;;;2.03;0.80;;;;;;;20.73;41.35;100391.34;5113800;28;20032;-49
2022/06/30 10:58:22;;;;;;;3.35;0.90;;;;;;;20.91;40.78;100381.91;5113643;28;20395;-52
2022/06/30 11:01:10;;;;;;;1.58;0.70;;;;;;;21.00;41.55;100388.50;5114034;28;20433;-47
2022/06/30 11:03:56;;;;;;;3.78;0.85;;;;;;;20.95;41.47;100375.66;5098240;28;20040;-49
2022/06/30 11:06:26;;;;;;;3.58;0.93;;;;;;;21.13;41.40;100385.28;5112708;28;20337;-46
2022/06/30 11:08:57;;;;;;;4.43;1.02;;;;;;;21.05;39.12;100370.25;5112902;28;20040;-46
2022/06/30 11:11:43;;;;;;;3.75;1.35;;;;;;;20.92;39.49;100387.09;5112948;28;20452;-50
2022/06/30 11:14:29;;;;;;;2.92;0.70;;;;;;;20.87;39.92;100370.69;5112369;28;20181;-48
2022/06/30 11:16:55;;;;;;;2.30;0.80;;;;;;;21.01;41.06;100384.69;5113393;28;20104;-49
2022/06/30 11:19:24;;;;;;;2.22;0.77;;;;;;;20.81;41.07;100388.94;5113167;28;20565;-49
2022/06/30 11:21:50;;;;;;;2.00;0.90;;;;;;;20.76;41.45;100377.19;5113126;27;20038;-47
2022/06/30 11:24:20;;;;;;;3.53;0.75;;;;;;;20.89;42.02;100376.69;5112783;28;20061;-49
2022/06/30 11:29:33;;;;;;;5.07;1.05;;;;;;;20.57;42.02;100376.75;5111729;28;20448;-47
2022/06/30 11:32:01;;;;;;;4.63;0.90;;;;;;;20.54;41.38;100378.13;5111571;28;20028;-49
2022/06/30 11:34:28;;;;;;;5.32;0.90;;;;;;;20.47;42.29;100375.59;5111485;28;20035;-46
2022/06/30 11:36:54;;;;;;;2.70;0.88;;;;;;;20.59;41.19;100372.66;5094545;28;20034;-47
2022/06/30 11:39:21;;;;;;;2.72;0.80;;;;;;;20.65;41.67;100379.00;5111307;28;20039;-45
2022/06/30 11:41:56;;;;;;;3.47;1.00;;;;;;;20.64;42.31;100369.19;5112656;28;20093;-47
2022/06/30 11:44:29;;;;;;;3.40;1.25;;;;;;;20.90;41.18;100381.09;5111659;28;20112;-47
2022/06/30 11:46:57;;;;;;;2.03;1.10;;;;;;;20.86;41.74;100378.06;5112537;28;20413;-49